Time;durP1;ratioP1;P1;durP2;ratioP2;P2;SDS_P1;SDS_P2;PMS_P1;PMS_P2;Temp;Humidity;BMP_temperature;BMP_pressure;BME280_temperature;BME280_humidity;BME280_pressure;Samples;Min_cycle;Max_cycle;Signal;HPM_P1;HPM_P2
2021/11/26 00:00:19;;;;;;;18.42;2.47;;;;;;;1.00;95.41;100516.94;2080934;28;20127;-64
2021/11/26 00:01:21;;;;;;;16.13;1.95;;;;;;;1.01;95.44;100511.69;2079782;28;37957;-64
2021/11/26 00:02:27;;;;;;;9.43;1.85;;;;;;;1.07;95.20;100495.91;2080770;28;20045;-64
2021/11/26 00:03:29;;;;;;;16.73;2.85;;;;;;;1.11;95.34;100497.72;2080178;28;35267;-64
2021/11/26 00:04:30;;;;;;;13.55;2.28;;;;;;;1.13;95.37;100495.97;2080116;28;34473;-64
2021/11/26 00:05:32;;;;;;;19.95;2.63;;;;;;;1.13;95.61;100495.97;2080969;28;20158;-64
2021/11/26 00:06:34;;;;;;;15.70;2.45;;;;;;;1.19;95.33;100492.50;2080123;28;33192;-63
2021/11/26 00:07:36;;;;;;;13.57;2.60;;;;;;;1.22;95.55;100494.25;2080340;28;35757;-64
2021/11/26 00:08:37;;;;;;;16.05;2.97;;;;;;;1.23;95.66;100493.41;2080818;28;20034;-64
2021/11/26 00:09:40;;;;;;;19.88;3.08;;;;;;;1.24;95.54;100492.53;2079988;28;32071;-64
2021/11/26 00:10:46;;;;;;;14.85;3.22;;;;;;;1.25;95.36;100500.44;2080061;28;30380;-64
2021/11/26 00:11:48;;;;;;;15.88;3.83;;;;;;;1.28;95.89;100500.47;2079787;28;20042;-63
2021/11/26 00:12:58;;;;;;;10.90;3.05;;;;;;;1.29;95.45;100493.44;2079195;28;37368;-63
2021/11/26 00:15:27;;;;;;;12.95;2.83;;;;;;;1.37;95.63;100486.47;2080465;28;27755;-63
2021/11/26 00:16:34;;;;;;;15.63;2.20;;;;;;;1.38;95.54;100475.03;2080707;28;20108;-63
2021/11/26 00:17:44;;;;;;;12.82;2.40;;;;;;;1.41;95.70;100471.56;2080317;28;30504;-63
2021/11/26 00:18:52;;;;;;;14.38;3.28;;;;;;;1.44;95.44;100480.38;2080499;28;25061;-63
2021/11/26 00:19:56;;;;;;;12.93;2.75;;;;;;;1.46;95.90;100465.44;2080383;28;25115;-62
2021/11/26 00:21:00;;;;;;;14.25;3.38;;;;;;;1.46;95.83;100460.16;2080357;28;27750;-64
2021/11/26 00:22:01;;;;;;;19.15;3.63;;;;;;;1.47;95.26;100459.31;2080049;28;20042;-63
2021/11/26 00:23:07;;;;;;;14.02;2.63;;;;;;;1.48;95.83;100453.13;2080505;28;23983;-63
2021/11/26 00:24:12;;;;;;;15.57;2.53;;;;;;;1.49;95.50;100459.28;2079900;28;32873;-63
2021/11/26 00:25:15;;;;;;;19.55;2.75;;;;;;;1.51;95.49;100460.22;2080010;28;22151;-63
2021/11/26 00:26:16;;;;;;;13.85;2.47;;;;;;;1.49;95.33;100452.28;2079760;28;20042;-63
2021/11/26 00:27:19;;;;;;;11.68;1.98;;;;;;;1.48;95.47;100449.63;2080375;28;22375;-63
2021/11/26 00:28:21;;;;;;;21.60;2.55;;;;;;;1.50;95.46;100443.47;2079509;28;20108;-63
2021/11/26 00:29:23;;;;;;;12.32;2.50;;;;;;;1.50;95.55;100447.88;2079585;28;35324;-63
2021/11/26 00:30:26;;;;;;;14.90;3.08;;;;;;;1.51;95.31;100439.97;2080280;28;27823;-64
2021/11/26 00:31:28;;;;;;;11.98;3.08;;;;;;;1.50;96.04;100439.97;2080473;28;26867;-63
2021/11/26 00:32:30;;;;;;;14.88;2.67;;;;;;;1.50;96.14;100434.69;2079776;28;37208;-64
2021/11/26 00:33:33;;;;;;;13.38;2.33;;;;;;;1.50;95.76;100434.69;2080515;28;34173;-63
2021/11/26 00:34:35;;;;;;;17.80;3.17;;;;;;;1.49;96.16;100436.44;2080282;28;25672;-64
2021/11/26 00:35:36;;;;;;;11.77;2.50;;;;;;;1.47;95.31;100442.56;2081424;28;27635;-63
2021/11/26 00:36:39;;;;;;;19.52;2.60;;;;;;;1.48;95.97;100434.66;2082027;28;28541;-64
2021/11/26 00:37:41;;;;;;;20.08;2.90;;;;;;;1.52;95.72;100430.28;2081113;28;38112;-63
2021/11/26 00:38:42;;;;;;;15.38;2.60;;;;;;;1.50;96.07;100435.56;2081426;28;29750;-63
2021/11/26 00:39:44;;;;;;;17.33;2.90;;;;;;;1.51;96.06;100428.56;2081524;28;29382;-63
2021/11/26 00:40:46;;;;;;;16.83;3.60;;;;;;;1.53;96.33;100435.59;2081645;28;29096;-64
2021/11/26 00:41:51;;;;;;;14.50;2.72;;;;;;;1.52;96.08;100428.53;2081014;28;36249;-63
2021/11/26 00:42:52;;;;;;;14.60;2.55;;;;;;;1.55;96.18;100422.41;2081628;28;29135;-63
2021/11/26 00:43:54;;;;;;;14.77;3.10;;;;;;;1.59;96.30;100425.94;2081434;28;26896;-63
2021/11/26 00:44:56;;;;;;;17.02;3.20;;;;;;;1.62;95.85;100423.34;2081235;28;31864;-63
2021/11/26 00:45:58;;;;;;;9.43;2.35;;;;;;;1.61;96.09;100426.84;2082038;28;20056;-63
2021/11/26 00:47:02;;;;;;;19.25;3.30;;;;;;;1.61;95.61;100416.28;2082216;28;20050;-63
2021/11/26 00:48:04;;;;;;;13.05;3.05;;;;;;;1.62;96.21;100415.41;2081908;28;20803;-63
2021/11/26 00:49:06;;;;;;;15.00;1.90;;;;;;;1.61;95.65;100406.59;2081224;28;28730;-63
2021/11/26 00:50:11;;;;;;;11.48;2.17;;;;;;;1.62;95.49;100408.38;2080586;28;35811;-64
2021/11/26 00:51:14;;;;;;;11.50;2.40;;;;;;;1.66;95.65;100415.41;2073969;28;20191;-63
2021/11/26 00:52:16;;;;;;;17.00;3.10;;;;;;;1.66;95.59;100409.28;2073135;28;26076;-64
2021/11/26 00:53:17;;;;;;;11.63;2.40;;;;;;;1.67;96.27;100418.94;2080706;28;27775;-63
2021/11/26 00:54:19;;;;;;;12.18;2.38;;;;;;;1.68;96.11;100418.06;2081206;28;26732;-63
2021/11/26 00:55:21;;;;;;;13.25;2.80;;;;;;;1.69;95.71;100417.22;2081116;28;31470;-64
2021/11/26 00:56:23;;;;;;;13.23;2.85;;;;;;;1.69;95.97;100411.94;2081456;28;27381;-63
2021/11/26 00:57:25;;;;;;;15.48;2.60;;;;;;;1.71;96.05;100405.78;2081358;28;28784;-63
2021/11/26 00:58:26;;;;;;;19.27;2.80;;;;;;;1.71;95.88;100404.91;2081166;28;38129;-64
2021/11/26 00:59:28;;;;;;;18.05;2.90;;;;;;;1.73;95.66;100400.50;2082154;28;25156;-63
2021/11/26 01:00:31;;;;;;;13.20;2.95;;;;;;;1.74;95.57;100406.66;2081752;28;20952;-64
2021/11/26 01:01:35;;;;;;;10.60;2.65;;;;;;;1.73;95.49;100405.78;2081633;28;25172;-63
2021/11/26 01:02:39;;;;;;;11.05;2.38;;;;;;;1.74;95.95;100399.59;2081389;28;27680;-61
2021/11/26 01:03:41;;;;;;;13.88;2.88;;;;;;;1.75;95.81;100400.50;2081173;28;35384;-63
2021/11/26 01:04:42;;;;;;;12.25;3.03;;;;;;;1.78;95.37;100404.06;2081052;28;37865;-63
2021/11/26 01:05:46;;;;;;;12.63;2.40;;;;;;;1.76;95.12;100397.88;2081409;28;25453;-64
2021/11/26 01:06:48;;;;;;;13.32;2.63;;;;;;;1.76;95.54;100395.25;2081496;28;33393;-64
2021/11/26 01:07:49;;;;;;;15.65;3.08;;;;;;;1.76;95.86;100396.97;2081519;28;26988;-63
2021/11/26 01:08:51;;;;;;;10.55;2.38;;;;;;;1.76;95.88;100397.88;2081699;28;20034;-63
2021/11/26 01:09:53;;;;;;;15.38;2.78;;;;;;;1.76;95.39;100394.34;2081401;28;24151;-63
2021/11/26 01:10:55;;;;;;;20.30;3.53;;;;;;;1.76;95.31;100392.63;2081342;28;29582;-63
2021/11/26 01:11:57;;;;;;;23.40;3.50;;;;;;;1.74;95.48;100389.06;2080891;28;36267;-63
2021/11/26 01:12:59;;;;;;;13.70;2.97;;;;;;;1.75;95.20;100390.84;2081451;28;24908;-63
2021/11/26 01:14:01;;;;;;;14.07;3.58;;;;;;;1.73;95.45;100382.03;2081002;28;29879;-64
2021/11/26 01:15:08;;;;;;;17.27;2.70;;;;;;;1.72;95.19;100390.81;2081600;28;29897;-64
2021/11/26 01:16:09;;;;;;;15.60;3.17;;;;;;;1.71;95.28;100389.94;2080442;28;31618;-63
2021/11/26 01:17:11;;;;;;;17.30;3.28;;;;;;;1.70;95.62;100382.88;2080750;28;26577;-64
2021/11/26 01:18:15;;;;;;;17.38;2.92;;;;;;;1.70;95.85;100385.53;2081432;28;27324;-63
2021/11/26 01:19:18;;;;;;;14.90;3.63;;;;;;;1.68;95.92;100381.13;2081614;28;25178;-64
2021/11/26 01:20:26;;;;;;;16.13;3.50;;;;;;;1.67;95.89;100372.34;2081741;28;20038;-64
2021/11/26 01:21:28;;;;;;;13.82;3.30;;;;;;;1.66;95.31;100370.56;2081812;28;33485;-64
2021/11/26 01:22:30;;;;;;;20.50;3.60;;;;;;;1.64;95.79;100366.16;2081064;28;30031;-64
2021/11/26 01:23:32;;;;;;;16.00;3.35;;;;;;;1.65;95.71;100373.19;2080709;28;25830;-64
2021/11/26 01:24:33;;;;;;;17.27;3.10;;;;;;;1.63;95.28;100367.03;2080493;28;29135;-63
2021/11/26 01:25:36;;;;;;;20.60;4.15;;;;;;;1.64;95.35;100371.44;2081284;28;20029;-63
2021/11/26 01:26:37;;;;;;;15.90;3.78;;;;;;;1.63;95.63;100365.25;2081245;28;28317;-63
2021/11/26 01:27:40;;;;;;;25.73;3.67;;;;;;;1.61;95.88;100371.41;2081396;28;20815;-64
2021/11/26 01:28:46;;;;;;;17.08;3.42;;;;;;;1.61;95.41;100367.00;2081374;28;20049;-64
2021/11/26 01:29:48;;;;;;;14.73;3.50;;;;;;;1.63;95.69;100359.13;2081372;28;28173;-63
2021/11/26 01:30:50;;;;;;;20.65;3.67;;;;;;;1.62;96.04;100360.88;2080937;28;36282;-64
2021/11/26 01:31:52;;;;;;;14.45;3.72;;;;;;;1.62;95.34;100352.09;2081589;28;21457;-63
2021/11/26 01:32:58;;;;;;;16.85;3.72;;;;;;;1.63;95.93;100356.47;2080957;28;32331;-63
2021/11/26 01:34:02;;;;;;;16.33;4.28;;;;;;;1.64;95.36;100360.88;2081186;28;28493;-63
2021/11/26 01:35:05;;;;;;;14.38;4.22;;;;;;;1.62;95.78;100355.59;2081104;28;30042;-63
2021/11/26 01:36:07;;;;;;;15.93;4.47;;;;;;;1.63;95.30;100359.13;2081129;28;25733;-64
2021/11/26 01:37:08;;;;;;;15.75;3.95;;;;;;;1.61;95.27;100351.19;2081329;28;32029;-64
2021/11/26 01:38:11;;;;;;;17.90;4.47;;;;;;;1.62;95.40;100346.81;2081033;28;33208;-63
2021/11/26 01:39:15;;;;;;;19.80;4.47;;;;;;;1.62;95.71;100344.19;2081548;28;20176;-64
2021/11/26 01:40:19;;;;;;;17.05;4.47;;;;;;;1.61;95.65;100350.31;2081373;28;24227;-63
2021/11/26 01:41:23;;;;;;;16.55;4.00;;;;;;;1.61;95.55;100342.41;2081176;28;30480;-64
2021/11/26 01:42:25;;;;;;;19.13;4.70;;;;;;;1.61;95.29;100334.47;2080670;28;29545;-64
2021/11/26 01:43:27;;;;;;;17.80;4.65;;;;;;;1.63;95.65;100345.91;2081875;28;21013;-64
2021/11/26 01:44:30;;;;;;;20.55;4.65;;;;;;;1.63;95.46;100344.16;2081254;28;26277;-64
2021/11/26 01:45:48;;;;;;;16.42;4.35;;;;;;;1.63;95.42;100338.00;2081895;28;20034;-63
2021/11/26 01:46:50;;;;;;;16.73;4.88;;;;;;;1.63;95.91;100338.00;2080354;28;27896;-64
2021/11/26 01:47:53;;;;;;;18.50;5.07;;;;;;;1.64;95.17;100339.78;2081507;28;20883;-64
2021/11/26 01:48:54;;;;;;;18.40;5.30;;;;;;;1.65;95.61;100333.59;2080853;28;34508;-63
2021/11/26 01:49:58;;;;;;;20.58;5.03;;;;;;;1.65;95.66;100331.88;2080973;28;33402;-63
2021/11/26 01:51:00;;;;;;;13.85;4.85;;;;;;;1.66;95.05;100328.34;2081460;28;20037;-64
2021/11/26 01:52:02;;;;;;;17.17;5.05;;;;;;;1.68;95.46;100328.34;2080590;28;34469;-64
2021/11/26 01:53:04;;;;;;;17.48;5.65;;;;;;;1.68;95.31;100331.00;2081678;28;31165;-63
2021/11/26 01:54:08;;;;;;;15.85;5.30;;;;;;;1.68;95.76;100318.66;2081105;28;27823;-64
2021/11/26 01:55:12;;;;;;;17.75;6.05;;;;;;;1.68;95.63;100310.75;2081108;28;34384;-63
2021/11/26 01:56:14;;;;;;;15.85;5.70;;;;;;;1.68;95.27;100313.38;2080807;28;36273;-64
2021/11/26 01:57:18;;;;;;;19.88;5.40;;;;;;;1.69;95.43;100311.66;2080374;28;34844;-63
2021/11/26 01:58:21;;;;;;;16.23;5.25;;;;;;;1.69;95.22;100312.53;2080955;28;29450;-63
2021/11/26 01:59:23;;;;;;;21.33;5.47;;;;;;;1.69;95.27;100316.94;2080453;28;25190;-63
2021/11/26 02:00:32;;;;;;;19.00;5.30;;;;;;;1.67;94.99;100310.75;2080463;28;30292;-63
2021/11/26 02:01:37;;;;;;;14.38;5.10;;;;;;;1.65;95.03;100310.75;2081591;28;20969;-63
2021/11/26 02:02:39;;;;;;;18.38;5.32;;;;;;;1.65;95.19;100308.13;2080790;28;34908;-64
2021/11/26 02:03:41;;;;;;;15.68;5.63;;;;;;;1.63;95.34;100301.06;2080717;28;34693;-63
2021/11/26 02:04:43;;;;;;;22.48;6.00;;;;;;;1.63;94.96;100308.97;2080814;28;37130;-64
2021/11/26 02:05:45;;;;;;;20.20;5.75;;;;;;;1.61;94.92;100298.41;2081103;28;28799;-64
2021/11/26 02:06:47;;;;;;;17.48;4.75;;;;;;;1.59;95.22;100301.94;2080907;28;33079;-64
2021/11/26 02:07:50;;;;;;;22.90;5.90;;;;;;;1.57;95.15;100301.94;2080979;28;31979;-64
2021/11/26 02:08:51;;;;;;;15.57;5.60;;;;;;;1.57;95.31;100295.78;2080894;28;36884;-64
2021/11/26 02:09:53;;;;;;;17.70;5.90;;;;;;;1.55;95.22;100287.84;2081526;28;20176;-64
2021/11/26 02:10:55;;;;;;;16.70;5.72;;;;;;;1.55;95.09;100297.53;2080825;28;31533;-64
2021/11/26 02:11:57;;;;;;;15.57;5.68;;;;;;;1.54;95.17;100294.00;2081540;28;20053;-64
2021/11/26 02:12:59;;;;;;;22.48;6.45;;;;;;;1.53;95.41;100289.63;2081467;28;20038;-63
2021/11/26 02:14:00;;;;;;;20.58;6.10;;;;;;;1.53;95.92;100287.84;2080527;28;32161;-64
2021/11/26 02:15:06;;;;;;;20.77;6.30;;;;;;;1.52;95.14;100286.06;2080562;28;26464;-64
2021/11/26 02:16:09;;;;;;;20.30;6.28;;;;;;;1.52;95.33;100283.44;2081126;28;24427;-64
2021/11/26 02:17:13;;;;;;;21.02;6.43;;;;;;;1.50;95.43;100274.63;2080628;28;34224;-64
2021/11/26 02:18:16;;;;;;;15.93;5.95;;;;;;;1.48;95.44;100279.03;2080750;28;29710;-63
2021/11/26 02:19:24;;;;;;;19.75;7.00;;;;;;;1.47;95.50;100274.66;2080872;28;35556;-64
2021/11/26 02:20:28;;;;;;;20.17;6.22;;;;;;;1.46;95.86;100275.50;2081262;28;22706;-63
2021/11/26 02:21:30;;;;;;;19.42;6.47;;;;;;;1.45;95.20;100273.75;2081563;28;20042;-63
2021/11/26 02:22:32;;;;;;;18.13;6.90;;;;;;;1.43;95.77;100270.22;2080047;28;32971;-64
2021/11/26 02:23:34;;;;;;;24.92;6.63;;;;;;;1.43;95.88;100267.59;2080377;28;24820;-63
2021/11/26 02:24:35;;;;;;;23.77;7.30;;;;;;;1.42;95.68;100272.84;2080481;28;37351;-64
2021/11/26 02:25:39;;;;;;;20.08;6.88;;;;;;;1.40;95.86;100269.31;2080635;28;28434;-63
2021/11/26 02:26:44;;;;;;;21.65;6.93;;;;;;;1.39;95.99;100268.47;2081090;28;22213;-64
2021/11/26 02:27:47;;;;;;;16.90;6.93;;;;;;;1.38;95.82;100263.16;2079911;28;35936;-63
2021/11/26 02:28:50;;;;;;;22.80;7.32;;;;;;;1.38;95.99;100258.75;2081247;28;20463;-63
2021/11/26 02:29:55;;;;;;;20.80;6.55;;;;;;;1.36;95.70;100257.88;2080835;28;30347;-64
2021/11/26 02:30:57;;;;;;;22.48;6.95;;;;;;;1.37;95.97;100257.03;2081257;28;28489;-64
2021/11/26 02:31:59;;;;;;;18.77;6.80;;;;;;;1.35;95.62;100253.50;2080687;28;29754;-64
2021/11/26 02:33:21;;;;;;;17.92;6.88;;;;;;;1.33;95.52;100250.00;2080971;28;27820;-63
2021/11/26 02:34:25;;;;;;;21.08;7.25;;;;;;;1.33;95.75;100244.72;2080744;28;21001;-63
2021/11/26 02:35:29;;;;;;;23.58;7.50;;;;;;;1.33;96.13;100250.00;2080788;28;27309;-64
2021/11/26 02:36:32;;;;;;;22.50;7.50;;;;;;;1.32;95.90;100240.31;2081386;28;20091;-64
2021/11/26 02:37:34;;;;;;;17.70;7.40;;;;;;;1.33;95.86;100245.59;2081202;28;22701;-64
2021/11/26 02:38:35;;;;;;;19.17;7.95;;;;;;;1.31;95.73;100243.78;2080941;28;27216;-63
2021/11/26 02:39:37;;;;;;;15.73;7.15;;;;;;;1.30;96.00;100234.16;2080863;28;21876;-64
2021/11/26 02:40:43;;;;;;;26.73;7.97;;;;;;;1.30;96.17;100240.28;2080775;28;28510;-64
2021/11/26 02:41:45;;;;;;;22.85;7.47;;;;;;;1.30;95.70;100228.88;2080854;28;32414;-63
2021/11/26 02:42:50;;;;;;;22.63;7.85;;;;;;;1.30;95.94;100227.09;2080700;28;26676;-64
2021/11/26 02:43:51;;;;;;;16.77;7.85;;;;;;;1.30;96.39;100231.50;2080610;28;33042;-63
2021/11/26 02:44:53;;;;;;;21.90;7.78;;;;;;;1.28;95.92;100226.22;2080331;28;25164;-63
2021/11/26 02:45:55;;;;;;;23.55;8.95;;;;;;;1.27;96.14;100229.72;2080352;28;20902;-63
2021/11/26 02:46:57;;;;;;;22.17;8.48;;;;;;;1.30;96.19;100227.09;2080669;28;32508;-64
2021/11/26 02:47:59;;;;;;;19.88;7.97;;;;;;;1.27;96.29;100223.56;2079996;28;30543;-64
2021/11/26 02:49:02;;;;;;;17.05;7.40;;;;;;;1.26;96.18;100219.19;2080710;28;28850;-64
2021/11/26 02:50:07;;;;;;;25.23;8.50;;;;;;;1.26;95.98;100225.34;2080496;28;33968;-64
2021/11/26 02:51:09;;;;;;;16.60;7.45;;;;;;;1.26;96.34;100224.47;2081046;28;34040;-64
2021/11/26 02:52:11;;;;;;;19.58;6.90;;;;;;;1.25;95.89;100215.66;2080462;28;33084;-63
2021/11/26 02:53:13;;;;;;;22.73;8.07;;;;;;;1.26;96.44;100216.56;2081087;28;26052;-63
2021/11/26 02:54:17;;;;;;;21.25;8.27;;;;;;;1.27;96.87;100207.75;2080160;28;35740;-63
2021/11/26 02:55:23;;;;;;;23.50;8.15;;;;;;;1.28;96.24;100212.16;2080824;28;27897;-63
2021/11/26 02:56:26;;;;;;;22.63;9.00;;;;;;;1.28;96.51;100212.16;2080884;28;20076;-64
2021/11/26 02:57:28;;;;;;;20.45;7.93;;;;;;;1.26;96.08;100209.53;2079726;28;28515;-64
2021/11/26 02:58:32;;;;;;;22.75;8.82;;;;;;;1.27;96.57;100215.66;2080009;28;25556;-64
2021/11/26 02:59:34;;;;;;;29.42;8.77;;;;;;;1.28;96.68;100206.88;2080680;28;27165;-63
2021/11/26 03:00:42;;;;;;;25.35;8.07;;;;;;;1.26;96.13;100206.00;2080996;28;20083;-63
2021/11/26 03:01:43;;;;;;;24.40;8.95;;;;;;;1.26;96.14;100203.38;2080723;28;29030;-63
2021/11/26 03:02:46;;;;;;;15.77;8.25;;;;;;;1.28;96.11;100199.84;2080400;28;35541;-63
2021/11/26 03:03:48;;;;;;;21.60;8.95;;;;;;;1.29;96.22;100195.44;2080756;28;27327;-63
2021/11/26 03:04:50;;;;;;;19.27;8.65;;;;;;;1.28;96.52;100197.22;2081150;28;20191;-63
2021/11/26 03:05:58;;;;;;;23.67;8.90;;;;;;;1.30;96.37;100191.94;2080367;28;25990;-63
2021/11/26 03:07:09;;;;;;;21.40;8.75;;;;;;;1.32;96.48;100196.34;2080931;28;22998;-64
2021/11/26 03:08:12;;;;;;;31.98;8.95;;;;;;;1.33;96.35;100184.94;2080465;28;22187;-64
2021/11/26 03:09:16;;;;;;;25.90;9.25;;;;;;;1.35;96.50;100179.66;2080794;28;29486;-64
2021/11/26 03:10:21;;;;;;;18.00;8.90;;;;;;;1.37;96.38;100183.19;2081055;28;20042;-63
2021/11/26 03:11:23;;;;;;;19.20;8.38;;;;;;;1.38;96.70;100184.03;2080729;28;26336;-64
2021/11/26 03:12:25;;;;;;;21.70;9.75;;;;;;;1.38;96.35;100179.66;2080590;28;35507;-64
2021/11/26 03:13:27;;;;;;;21.20;9.48;;;;;;;1.40;96.28;100182.28;2080497;28;35159;-64
2021/11/26 03:14:29;;;;;;;27.23;9.57;;;;;;;1.40;96.73;100180.56;2080829;28;24717;-64
2021/11/26 03:15:35;;;;;;;26.48;9.57;;;;;;;1.43;96.59;100177.03;2081150;28;20096;-64
2021/11/26 03:16:38;;;;;;;20.63;8.75;;;;;;;1.42;96.43;100176.16;2079895;28;33034;-63
2021/11/26 03:17:40;;;;;;;23.55;9.48;;;;;;;1.45;96.67;100176.13;2080556;28;30978;-63
2021/11/26 03:18:42;;;;;;;20.88;8.80;;;;;;;1.43;96.69;100166.47;2080572;28;29112;-63
2021/11/26 03:19:47;;;;;;;19.13;8.98;;;;;;;1.46;96.45;100169.13;2080638;28;20116;-63
2021/11/26 03:20:50;;;;;;;23.25;9.52;;;;;;;1.46;96.30;100164.72;2080449;28;24283;-64
2021/11/26 03:21:52;;;;;;;17.67;8.70;;;;;;;1.48;96.67;100157.69;2080696;28;20919;-63
2021/11/26 03:22:56;;;;;;;24.05;9.63;;;;;;;1.49;96.28;100169.13;2080551;28;24179;-64
2021/11/26 03:23:58;;;;;;;21.70;9.32;;;;;;;1.49;96.37;100164.75;2080994;28;20046;-64
2021/11/26 03:24:59;;;;;;;23.55;8.98;;;;;;;1.49;96.58;100163.84;2080526;28;37683;-64
2021/11/26 03:26:01;;;;;;;20.75;9.82;;;;;;;1.50;96.59;100153.28;2080320;28;23191;-64
2021/11/26 03:27:03;;;;;;;19.05;8.50;;;;;;;1.50;96.53;100155.06;2081075;28;20120;-64
2021/11/26 03:28:05;;;;;;;22.48;9.52;;;;;;;1.53;96.08;100155.94;2080059;28;33903;-64
2021/11/26 03:29:07;;;;;;;26.05;9.32;;;;;;;1.53;96.84;100153.31;2080373;28;35499;-64
2021/11/26 03:30:11;;;;;;;22.08;10.23;;;;;;;1.56;96.49;100155.06;2081019;28;20151;-64
2021/11/26 03:31:13;;;;;;;22.20;9.77;;;;;;;1.58;96.33;100155.06;2079891;28;29388;-63
2021/11/26 03:32:15;;;;;;;20.80;9.23;;;;;;;1.57;96.64;100148.91;2080192;28;21372;-63
2021/11/26 03:33:18;;;;;;;22.50;9.43;;;;;;;1.58;96.55;100149.78;2081189;28;20034;-63
2021/11/26 03:34:20;;;;;;;20.55;9.82;;;;;;;1.58;96.62;100149.78;2080180;28;30950;-64
2021/11/26 03:35:23;;;;;;;17.17;9.38;;;;;;;1.57;96.22;100138.34;2080204;28;33154;-63
2021/11/26 03:36:27;;;;;;;27.73;9.80;;;;;;;1.58;96.26;100142.78;2080884;28;28454;-64
2021/11/26 03:37:29;;;;;;;17.52;9.48;;;;;;;1.58;96.43;100139.22;2080534;28;32112;-63
2021/11/26 03:38:30;;;;;;;23.25;9.57;;;;;;;1.59;96.40;100144.50;2080136;28;34571;-64
2021/11/26 03:39:32;;;;;;;20.08;10.25;;;;;;;1.61;96.36;100139.25;2080177;28;32572;-63
2021/11/26 03:40:34;;;;;;;23.10;9.93;;;;;;;1.59;96.38;100135.72;2080104;28;32568;-64
2021/11/26 03:41:35;;;;;;;24.52;9.40;;;;;;;1.60;95.86;100126.91;2080792;28;20590;-63
2021/11/26 03:42:40;;;;;;;26.13;9.98;;;;;;;1.59;96.49;100130.44;2079969;28;30759;-64
2021/11/26 03:43:44;;;;;;;24.17;9.85;;;;;;;1.60;96.40;100127.81;2080837;28;22486;-63
2021/11/26 03:44:46;;;;;;;19.15;9.73;;;;;;;1.60;96.31;100124.28;2080619;28;27002;-64
2021/11/26 03:45:48;;;;;;;19.38;9.68;;;;;;;1.59;96.40;100120.78;2080689;28;23258;-63
2021/11/26 03:46:50;;;;;;;27.08;11.18;;;;;;;1.59;96.34;100120.78;2081193;28;20181;-63
2021/11/26 03:47:53;;;;;;;19.27;10.75;;;;;;;1.60;95.89;100121.63;2080043;28;31914;-64
2021/11/26 03:48:54;;;;;;;23.70;11.10;;;;;;;1.60;96.30;100116.38;2080062;28;26914;-64
2021/11/26 03:49:56;;;;;;;21.33;11.13;;;;;;;1.62;96.24;100117.28;2080289;28;29775;-63
2021/11/26 03:50:58;;;;;;;27.10;11.25;;;;;;;1.63;95.86;100108.47;2080756;28;27025;-63
2021/11/26 03:52:00;;;;;;;22.75;11.05;;;;;;;1.62;95.78;100104.06;2080981;28;20534;-64
2021/11/26 03:53:02;;;;;;;34.53;12.02;;;;;;;1.62;95.76;100109.34;2080304;28;30395;-63
2021/11/26 03:54:10;;;;;;;25.05;11.77;;;;;;;1.62;95.96;100104.06;2080398;28;29352;-63
2021/11/26 03:55:16;;;;;;;22.52;12.30;;;;;;;1.63;96.12;100101.41;2080877;28;20120;-64
2021/11/26 03:56:18;;;;;;;26.88;12.10;;;;;;;1.63;96.08;100105.81;2079769;28;37121;-64
2021/11/26 03:57:22;;;;;;;29.60;12.32;;;;;;;1.64;95.78;100099.69;2080162;28;30181;-64
2021/11/26 03:58:24;;;;;;;33.10;12.88;;;;;;;1.65;96.24;100101.41;2080634;28;27712;-63
2021/11/26 03:59:26;;;;;;;24.95;13.45;;;;;;;1.65;95.64;100104.06;2080401;28;32698;-64
2021/11/26 04:00:29;;;;;;;29.35;12.65;;;;;;;1.66;96.33;100104.06;2080634;28;22061;-64
2021/11/26 04:01:30;;;;;;;23.42;11.85;;;;;;;1.66;95.59;100093.50;2080226;28;32708;-64
2021/11/26 04:02:33;;;;;;;25.90;12.32;;;;;;;1.65;95.84;100094.41;2080506;28;29347;-63
2021/11/26 04:03:35;;;;;;;24.33;12.52;;;;;;;1.65;95.94;100093.50;2080395;28;28632;-62
2021/11/26 04:04:37;;;;;;;28.95;13.10;;;;;;;1.66;96.13;100079.44;2079867;28;36283;-63
2021/11/26 04:05:39;;;;;;;29.17;12.65;;;;;;;1.65;95.74;100082.94;2080988;28;20037;-64
2021/11/26 04:06:41;;;;;;;22.23;12.27;;;;;;;1.64;95.95;100082.06;2080422;28;26181;-63
2021/11/26 04:07:46;;;;;;;25.95;12.65;;;;;;;1.64;96.25;100082.06;2080469;28;22416;-63
2021/11/26 04:08:47;;;;;;;23.23;12.80;;;;;;;1.65;95.71;100082.94;2080415;28;20054;-64
2021/11/26 04:09:52;;;;;;;24.23;12.55;;;;;;;1.65;95.88;100078.56;2080831;28;20037;-63
2021/11/26 04:10:56;;;;;;;27.50;12.13;;;;;;;1.67;95.89;100086.47;2082490;28;20127;-63
2021/11/26 04:11:59;;;;;;;30.55;13.82;;;;;;;1.68;95.43;100078.53;2081885;28;24250;-63
2021/11/26 04:13:13;;;;;;;25.70;13.60;;;;;;;1.68;95.88;100070.63;2081835;28;26816;-64
2021/11/26 04:14:15;;;;;;;25.48;13.00;;;;;;;1.69;96.29;100074.16;2081192;28;28506;-64
2021/11/26 04:15:19;;;;;;;26.58;13.38;;;;;;;1.69;96.17;100066.25;2081393;28;20796;-63
2021/11/26 04:16:20;;;;;;;26.58;13.23;;;;;;;1.69;95.77;100068.91;2082372;28;20956;-64
2021/11/26 04:17:23;;;;;;;32.00;15.13;;;;;;;1.71;96.20;100067.13;2081570;28;31653;-64
2021/11/26 04:18:25;;;;;;;26.27;14.07;;;;;;;1.73;95.72;100062.72;2081566;28;29253;-64
2021/11/26 04:19:29;;;;;;;30.55;14.85;;;;;;;1.72;95.57;100053.03;2082304;28;20119;-64
2021/11/26 04:20:34;;;;;;;31.45;15.38;;;;;;;1.73;95.77;100044.25;2081385;28;34335;-64
2021/11/26 04:21:36;;;;;;;25.95;13.50;;;;;;;1.73;95.82;100044.25;2081870;28;35208;-63
2021/11/26 04:22:38;;;;;;;26.42;13.57;;;;;;;1.74;95.90;100046.00;2081732;28;30151;-64
2021/11/26 04:23:44;;;;;;;31.95;14.70;;;;;;;1.75;96.04;100046.91;2081633;28;32408;-63
2021/11/26 04:24:46;;;;;;;26.48;13.88;;;;;;;1.74;96.00;100035.44;2082310;28;20042;-64
2021/11/26 04:25:47;;;;;;;27.40;14.98;;;;;;;1.75;95.83;100044.25;2080973;28;32367;-63
2021/11/26 04:26:49;;;;;;;33.30;15.20;;;;;;;1.77;95.92;100037.22;2081663;28;35327;-63
2021/11/26 04:27:51;;;;;;;33.72;15.55;;;;;;;1.76;96.06;100038.97;2081271;28;32334;-63
2021/11/26 04:28:54;;;;;;;29.48;14.25;;;;;;;1.76;96.07;100032.81;2081295;28;20471;-63
2021/11/26 04:29:55;;;;;;;28.33;14.50;;;;;;;1.78;95.57;100033.69;2081140;28;27969;-63
2021/11/26 04:30:59;;;;;;;30.40;15.65;;;;;;;1.77;95.73;100027.53;2081524;28;29504;-64
2021/11/26 04:32:02;;;;;;;32.28;15.60;;;;;;;1.77;96.27;100024.88;2081835;28;31634;-63
2021/11/26 04:33:04;;;;;;;30.60;15.70;;;;;;;1.78;95.99;100026.66;2082373;28;20042;-63
2021/11/26 04:34:07;;;;;;;30.33;15.57;;;;;;;1.78;95.90;100026.66;2081399;28;29750;-63
2021/11/26 04:35:11;;;;;;;38.13;15.10;;;;;;;1.81;95.80;100025.75;2081164;28;27379;-63
2021/11/26 04:36:13;;;;;;;28.27;14.35;;;;;;;1.80;95.79;100027.53;2081136;28;21051;-63
2021/11/26 04:37:15;;;;;;;33.53;16.42;;;;;;;1.82;96.00;100024.88;2081687;28;29277;-63
2021/11/26 04:38:18;;;;;;;32.53;16.30;;;;;;;1.85;95.62;100012.56;2081624;28;28885;-63
2021/11/26 04:39:20;;;;;;;31.90;16.08;;;;;;;1.84;95.91;100015.19;2081844;28;24059;-63
2021/11/26 04:40:22;;;;;;;29.90;15.63;;;;;;;1.85;96.09;100014.34;2081010;28;28820;-63
2021/11/26 04:41:24;;;;;;;33.00;16.48;;;;;;;1.84;96.14;100010.78;2081085;28;28963;-63
2021/11/26 04:42:26;;;;;;;32.33;16.75;;;;;;;1.86;95.69;100014.31;2081389;28;27827;-61
2021/11/26 04:43:27;;;;;;;32.05;16.58;;;;;;;1.85;95.72;100002.00;2081410;28;25751;-63
2021/11/26 04:44:29;;;;;;;35.30;15.80;;;;;;;1.86;95.77;100002.88;2080919;28;27887;-63
2021/11/26 04:45:31;;;;;;;30.33;15.70;;;;;;;1.88;96.13;100012.56;2081261;28;34515;-63
2021/11/26 04:46:33;;;;;;;35.85;18.13;;;;;;;1.88;95.92;100001.09;2081199;28;20112;-63
2021/11/26 04:47:35;;;;;;;34.28;16.10;;;;;;;1.88;95.80;100007.28;2080863;28;32046;-63
2021/11/26 04:48:37;;;;;;;32.33;17.00;;;;;;;1.89;95.79;100003.75;2080977;28;29807;-63
2021/11/26 04:49:39;;;;;;;38.33;16.83;;;;;;;1.89;95.97;100003.75;2081510;28;20107;-63
2021/11/26 04:50:41;;;;;;;39.70;16.70;;;;;;;1.91;96.05;99995.81;2080862;28;32448;-63
2021/11/26 04:51:43;;;;;;;33.90;16.40;;;;;;;1.94;96.06;99994.94;2080828;28;33869;-63
2021/11/26 04:52:47;;;;;;;38.63;17.55;;;;;;;1.92;95.79;99994.97;2081379;28;32092;-63
2021/11/26 04:53:49;;;;;;;37.30;18.08;;;;;;;1.92;95.63;99987.03;2080657;28;34744;-64